Time;durP1;ratioP1;P1;durP2;ratioP2;P2;SDS_P1;SDS_P2;PMS_P1;PMS_P2;Temp;Humidity;BMP_temperature;BMP_pressure;BME280_temperature;BME280_humidity;BME280_pressure;Samples;Min_cycle;Max_cycle;Signal;HPM_P1;HPM_P2
2021/07/28 00:00:07;;;;;;;;;;;27.00;55.90;;;;;;5080453;28;20372;-65
2021/07/28 00:02:33;;;;;;;;;;;27.00;55.90;;;;;;5082010;28;19908;-63
2021/07/28 00:04:58;;;;;;;;;;;27.00;55.90;;;;;;5080861;28;19923;-60
2021/07/28 00:07:23;;;;;;;;;;;27.00;55.90;;;;;;5081683;28;19997;-62
2021/07/28 00:09:49;;;;;;;;;;;27.00;55.90;;;;;;5082455;28;20346;-61
2021/07/28 00:12:14;;;;;;;;;;;27.00;55.90;;;;;;5083603;28;19908;-62
2021/07/28 00:14:40;;;;;;;;;;;26.90;55.80;;;;;;5086200;28;19919;-61
2021/07/28 00:17:09;;;;;;;;;;;27.00;55.90;;;;;;5088292;28;19911;-60
2021/07/28 00:19:51;;;;;;;;;;;27.00;55.90;;;;;;5083240;28;19931;-64
2021/07/28 00:25:01;;;;;;;;;;;26.90;55.90;;;;;;5089626;28;20037;-64
2021/07/28 00:27:26;;;;;;;;;;;26.90;55.90;;;;;;5078319;28;20212;-61
2021/07/28 00:29:52;;;;;;;;;;;26.90;55.90;;;;;;5086182;28;19930;-61
2021/07/28 00:32:17;;;;;;;;;;;26.90;55.80;;;;;;5088387;28;19918;-60
2021/07/28 00:34:43;;;;;;;;;;;26.90;55.90;;;;;;5089371;28;19932;-59
2021/07/28 00:37:08;;;;;;;;;;;26.90;55.80;;;;;;5086858;28;20393;-60
2021/07/28 00:39:34;;;;;;;;;;;26.90;55.80;;;;;;5089156;28;19962;-63
2021/07/28 00:41:59;;;;;;;;;;;26.90;55.90;;;;;;5088764;28;19955;-61
2021/07/28 00:44:25;;;;;;;;;;;26.90;55.80;;;;;;5085901;28;19914;-63
2021/07/28 00:46:50;;;;;;;;;;;26.90;55.90;;;;;;5086427;28;20354;-62
2021/07/28 00:49:16;;;;;;;;;;;26.90;55.90;;;;;;5088149;28;19912;-60
2021/07/28 00:51:41;;;;;;;;;;;26.90;55.90;;;;;;5080694;28;20283;-61
2021/07/28 00:54:07;;;;;;;;;;;26.80;55.80;;;;;;5084943;28;19994;-61
2021/07/28 00:56:34;;;;;;;;;;;26.90;55.90;;;;;;5082301;28;20404;-64
2021/07/28 00:59:00;;;;;;;;;;;26.90;55.80;;;;;;5086322;28;20405;-60
2021/07/28 01:01:25;;;;;;;;;;;26.90;55.80;;;;;;5076028;28;19919;-62
2021/07/28 01:03:51;;;;;;;;;;;26.80;55.80;;;;;;5087219;28;20476;-65
2021/07/28 01:06:16;;;;;;;;;;;26.90;55.80;;;;;;5086059;28;19994;-62
2021/07/28 01:08:42;;;;;;;;;;;26.90;55.80;;;;;;5081874;28;19919;-62
2021/07/28 01:11:07;;;;;;;;;;;26.80;55.80;;;;;;5081933;28;19908;-62
2021/07/28 01:13:37;;;;;;;;;;;26.80;55.70;;;;;;5085391;28;19954;-65
2021/07/28 01:16:12;;;;;;;;;;;26.80;55.80;;;;;;5083102;28;19986;-62
2021/07/28 01:18:38;;;;;;;;;;;26.80;55.80;;;;;;5088713;28;20010;-60
2021/07/28 01:21:06;;;;;;;;;;;26.80;55.80;;;;;;5084777;28;19958;-63
2021/07/28 01:23:31;;;;;;;;;;;26.80;55.80;;;;;;5085673;28;19919;-62
2021/07/28 01:26:01;;;;;;;;;;;26.80;55.80;;;;;;5086237;28;19908;-60
2021/07/28 01:28:27;;;;;;;;;;;26.80;55.80;;;;;;5085566;28;20458;-60
2021/07/28 01:31:00;;;;;;;;;;;26.80;55.80;;;;;;5082092;28;19916;-61
2021/07/28 01:33:36;;;;;;;;;;;26.80;55.80;;;;;;5078526;28;19919;-65
2021/07/28 01:36:03;;;;;;;;;;;26.80;55.80;;;;;;5084277;28;19913;-62
2021/07/28 01:38:29;;;;;;;;;;;26.80;55.80;;;;;;5070254;28;20278;-62
2021/07/28 01:40:58;;;;;;;;;;;26.80;55.80;;;;;;5082745;28;19912;-62
2021/07/28 01:43:25;;;;;;;;;;;26.80;55.80;;;;;;5087995;28;19912;-61
2021/07/28 01:45:50;;;;;;;;;;;26.80;55.80;;;;;;5082987;28;19951;-61
2021/07/28 01:48:16;;;;;;;;;;;26.80;55.80;;;;;;5087392;28;19943;-60
2021/07/28 01:50:43;;;;;;;;;;;26.70;55.70;;;;;;5086674;28;20019;-62
2021/07/28 01:53:08;;;;;;;;;;;26.70;55.70;;;;;;5084866;28;19912;-62
2021/07/28 01:55:34;;;;;;;;;;;26.80;55.80;;;;;;5069274;28;20275;-62
2021/07/28 01:58:00;;;;;;;;;;;26.80;55.80;;;;;;5086500;28;20046;-61
2021/07/28 02:00:25;;;;;;;;;;;26.70;55.70;;;;;;5089922;28;19916;-64
2021/07/28 02:02:51;;;;;;;;;;;26.70;55.70;;;;;;5076012;28;20662;-63
2021/07/28 02:05:17;;;;;;;;;;;26.80;55.80;;;;;;5088101;28;19919;-63
2021/07/28 02:07:42;;;;;;;;;;;26.70;55.70;;;;;;5089411;28;19908;-64
2021/07/28 02:10:08;;;;;;;;;;;26.70;55.70;;;;;;5083638;28;19912;-60
2021/07/28 02:12:34;;;;;;;;;;;26.70;55.70;;;;;;5086035;28;20286;-61
2021/07/28 02:14:59;;;;;;;;;;;26.70;55.70;;;;;;5085515;28;19923;-60
2021/07/28 02:17:25;;;;;;;;;;;26.70;56.20;;;;;;5085282;28;19912;-60
2021/07/28 02:19:50;;;;;;;;;;;26.70;55.70;;;;;;5080824;28;19999;-61
2021/07/28 02:22:15;;;;;;;;;;;26.70;55.70;;;;;;5087368;28;20310;-63
2021/07/28 02:24:41;;;;;;;;;;;26.70;55.70;;;;;;5087066;28;19908;-63
2021/07/28 02:27:07;;;;;;;;;;;26.70;55.70;;;;;;5085549;28;19916;-63
2021/07/28 02:29:33;;;;;;;;;;;26.70;55.70;;;;;;5086218;28;20788;-61
2021/07/28 02:31:59;;;;;;;;;;;26.70;55.70;;;;;;5085867;28;19958;-60
2021/07/28 02:34:25;;;;;;;;;;;26.70;55.70;;;;;;5081320;28;19912;-60
2021/07/28 02:36:51;;;;;;;;;;;26.70;55.70;;;;;;5084498;28;20017;-63
2021/07/28 02:39:16;;;;;;;;;;;26.70;55.80;;;;;;5087037;28;19916;-62
2021/07/28 02:41:41;;;;;;;;;;;26.70;55.80;;;;;;5084944;28;19908;-62
2021/07/28 02:44:07;;;;;;;;;;;26.60;55.70;;;;;;5085049;28;19947;-61
2021/07/28 02:46:32;;;;;;;;;;;26.60;55.70;;;;;;5080776;28;20322;-62
2021/07/28 02:48:58;;;;;;;;;;;26.70;55.80;;;;;;5085224;28;20010;-62
2021/07/28 02:51:23;;;;;;;;;;;26.60;55.70;;;;;;5079645;28;20849;-61
2021/07/28 02:53:49;;;;;;;;;;;26.60;55.70;;;;;;5083595;28;19927;-62
2021/07/28 02:56:14;;;;;;;;;;;26.70;56.30;;;;;;5067384;28;19912;-64
2021/07/28 02:58:40;;;;;;;;;;;26.70;55.80;;;;;;5085998;28;19916;-61
2021/07/28 03:01:05;;;;;;;;;;;26.60;55.70;;;;;;5085466;28;20370;-61
2021/07/28 03:03:31;;;;;;;;;;;26.60;55.70;;;;;;5087272;28;19953;-61
2021/07/28 03:05:56;;;;;;;;;;;26.60;55.80;;;;;;5085146;28;19918;-66
2021/07/28 03:08:22;;;;;;;;;;;26.60;55.80;;;;;;5085562;28;20384;-64
2021/07/28 03:10:48;;;;;;;;;;;26.60;55.80;;;;;;5085189;28;19916;-64
2021/07/28 03:13:13;;;;;;;;;;;26.60;55.80;;;;;;5081985;28;20421;-65
2021/07/28 03:15:39;;;;;;;;;;;26.60;55.70;;;;;;5084765;28;19916;-62
2021/07/28 03:18:04;;;;;;;;;;;26.60;55.70;;;;;;5080616;28;19920;-61
2021/07/28 03:20:29;;;;;;;;;;;26.60;55.70;;;;;;5081218;28;20331;-62
2021/07/28 03:22:55;;;;;;;;;;;26.60;55.70;;;;;;5083962;28;19911;-61
2021/07/28 03:25:21;;;;;;;;;;;26.60;55.80;;;;;;5082539;28;19915;-63
2021/07/28 03:27:46;;;;;;;;;;;26.60;55.70;;;;;;5084909;28;19918;-62
2021/07/28 03:30:12;;;;;;;;;;;26.60;55.70;;;;;;5082825;28;20030;-61
2021/07/28 03:32:37;;;;;;;;;;;26.60;55.80;;;;;;5082980;28;19908;-66
2021/07/28 03:35:03;;;;;;;;;;;26.60;55.80;;;;;;5086429;28;19918;-62
2021/07/28 03:37:28;;;;;;;;;;;26.60;55.80;;;;;;5084395;28;19916;-61
2021/07/28 03:40:01;;;;;;;;;;;26.60;55.80;;;;;;5079746;28;19919;-65
2021/07/28 03:42:30;;;;;;;;;;;26.60;55.80;;;;;;5082766;28;20425;-65
2021/07/28 03:44:56;;;;;;;;;;;26.60;56.30;;;;;;5087185;28;19912;-61
2021/07/28 03:47:21;;;;;;;;;;;26.60;55.80;;;;;;5083889;28;19912;-63
2021/07/28 03:49:47;;;;;;;;;;;26.50;55.70;;;;;;5084012;28;20260;-66
2021/07/28 03:52:12;;;;;;;;;;;26.50;55.70;;;;;;5084745;28;19924;-63
2021/07/28 03:54:38;;;;;;;;;;;26.50;55.70;;;;;;5082874;28;19908;-60
2021/07/28 03:57:03;;;;;;;;;;;26.50;55.70;;;;;;5080926;28;19997;-60
2021/07/28 03:59:29;;;;;;;;;;;26.50;55.70;;;;;;5083215;28;20252;-65
2021/07/28 04:01:54;;;;;;;;;;;26.50;55.70;;;;;;5081820;28;19920;-60
2021/07/28 04:04:20;;;;;;;;;;;26.50;55.70;;;;;;5084978;28;19947;-62
2021/07/28 04:06:45;;;;;;;;;;;26.50;55.70;;;;;;5080294;28;19934;-64
2021/07/28 04:09:11;;;;;;;;;;;26.50;55.80;;;;;;5078830;28;20426;-60
2021/07/28 04:11:36;;;;;;;;;;;26.50;55.70;;;;;;5084081;28;19915;-64
2021/07/28 04:14:02;;;;;;;;;;;26.50;55.80;;;;;;5079817;28;19912;-64
2021/07/28 04:16:27;;;;;;;;;;;26.50;55.60;;;;;;5086613;28;19911;-63
2021/07/28 04:18:53;;;;;;;;;;;26.40;55.30;;;;;;5086697;28;19908;-63
2021/07/28 04:21:18;;;;;;;;;;;26.40;55.00;;;;;;5082681;28;19927;-61
2021/07/28 04:23:43;;;;;;;;;;;26.20;54.70;;;;;;5081249;28;20782;-64
2021/07/28 04:26:09;;;;;;;;;;;26.10;55.10;;;;;;5085025;28;19923;-63
2021/07/28 04:28:34;;;;;;;;;;;26.00;55.30;;;;;;5082782;28;19916;-61
2021/07/28 04:31:00;;;;;;;;;;;25.90;56.00;;;;;;5084011;28;19916;-64
2021/07/28 04:33:25;;;;;;;;;;;25.80;55.60;;;;;;5081677;28;19912;-61
2021/07/28 04:35:51;;;;;;;;;;;25.60;56.00;;;;;;5082374;28;19959;-63
2021/07/28 04:38:16;;;;;;;;;;;25.50;56.20;;;;;;5084461;28;19973;-60
2021/07/28 04:40:42;;;;;;;;;;;25.50;56.30;;;;;;5082053;28;19945;-61
2021/07/28 04:43:08;;;;;;;;;;;25.40;56.40;;;;;;5064582;28;19912;-59
2021/07/28 04:45:33;;;;;;;;;;;25.40;56.50;;;;;;5083145;28;20031;-62
2021/07/28 04:47:59;;;;;;;;;;;25.40;57.00;;;;;;5084928;28;19920;-60
2021/07/28 04:50:24;;;;;;;;;;;25.50;56.40;;;;;;5084626;28;19911;-61
2021/07/28 04:52:50;;;;;;;;;;;25.50;56.40;;;;;;5082152;28;19954;-64
2021/07/28 04:55:15;;;;;;;;;;;25.50;56.50;;;;;;5082865;28;19946;-63
2021/07/28 04:57:41;;;;;;;;;;;25.50;56.40;;;;;;5082437;28;19912;-65
2021/07/28 05:00:07;;;;;;;;;;;25.60;56.70;;;;;;5086193;28;19908;-64
2021/07/28 05:02:32;;;;;;;;;;;25.60;56.60;;;;;;5088699;28;19916;-62
2021/07/28 05:04:58;;;;;;;;;;;25.60;56.60;;;;;;5085194;28;20007;-60
2021/07/28 05:07:23;;;;;;;;;;;25.50;56.60;;;;;;5084743;28;19947;-63
2021/07/28 05:09:49;;;;;;;;;;;25.50;56.80;;;;;;5083694;28;19991;-59
2021/07/28 05:12:14;;;;;;;;;;;25.40;57.00;;;;;;5081942;28;19919;-61
2021/07/28 05:14:39;;;;;;;;;;;25.30;57.30;;;;;;5088624;28;19958;-60
2021/07/28 05:17:05;;;;;;;;;;;25.30;57.30;;;;;;5082116;28;19912;-62
2021/07/28 05:19:31;;;;;;;;;;;25.20;57.30;;;;;;5085195;28;19926;-64
2021/07/28 05:21:56;;;;;;;;;;;25.20;57.40;;;;;;5079509;28;19919;-61
2021/07/28 05:24:22;;;;;;;;;;;25.20;57.30;;;;;;5084286;28;19912;-62
2021/07/28 05:26:48;;;;;;;;;;;25.20;57.70;;;;;;5081321;28;19916;-63
2021/07/28 05:29:13;;;;;;;;;;;25.10;57.80;;;;;;5081074;28;20009;-64
2021/07/28 05:31:39;;;;;;;;;;;25.10;57.90;;;;;;5082193;28;20454;-63
2021/07/28 05:34:04;;;;;;;;;;;25.10;57.90;;;;;;5082492;28;19920;-61
2021/07/28 05:36:30;;;;;;;;;;;25.10;57.90;;;;;;5080718;28;19912;-63
2021/07/28 05:38:55;;;;;;;;;;;25.10;57.90;;;;;;5081625;28;19916;-63
2021/07/28 05:41:21;;;;;;;;;;;25.10;57.90;;;;;;5083601;28;20771;-61
2021/07/28 05:43:46;;;;;;;;;;;25.10;58.00;;;;;;5080963;28;19908;-60
2021/07/28 05:46:12;;;;;;;;;;;25.00;58.20;;;;;;5065994;28;20007;-64
2021/07/28 05:48:37;;;;;;;;;;;25.00;58.50;;;;;;5087525;28;20356;-63
2021/07/28 05:51:03;;;;;;;;;;;25.00;58.40;;;;;;5083808;28;19986;-60
2021/07/28 05:53:28;;;;;;;;;;;25.00;58.40;;;;;;5082285;28;21252;-61
2021/07/28 05:55:55;;;;;;;;;;;25.00;58.50;;;;;;5080592;28;19923;-63
2021/07/28 05:58:21;;;;;;;;;;;24.90;58.20;;;;;;5078239;28;19919;-64
2021/07/28 06:00:47;;;;;;;;;;;24.90;58.10;;;;;;5082225;28;20436;-60
2021/07/28 06:03:12;;;;;;;;;;;25.00;58.10;;;;;;5085798;28;19911;-61
2021/07/28 06:05:38;;;;;;;;;;;25.00;58.20;;;;;;5085265;28;19911;-62
2021/07/28 06:08:03;;;;;;;;;;;25.00;58.20;;;;;;5079173;28;19917;-61
2021/07/28 06:10:29;;;;;;;;;;;25.00;58.40;;;;;;5079244;28;20034;-62
2021/07/28 06:12:54;;;;;;;;;;;25.10;58.10;;;;;;5086639;28;20822;-62
2021/07/28 06:15:20;;;;;;;;;;;25.10;57.90;;;;;;5089891;28;19912;-62
2021/07/28 06:17:45;;;;;;;;;;;25.20;57.80;;;;;;5088294;28;19954;-61
2021/07/28 06:20:11;;;;;;;;;;;25.20;57.50;;;;;;5085488;28;19918;-60
2021/07/28 06:22:37;;;;;;;;;;;25.30;57.60;;;;;;5090174;28;19946;-59
2021/07/28 06:25:02;;;;;;;;;;;25.30;57.90;;;;;;5085816;28;19939;-59
2021/07/28 06:27:28;;;;;;;;;;;25.40;57.60;;;;;;5085196;28;19959;-61
2021/07/28 06:29:53;;;;;;;;;;;25.40;57.40;;;;;;5078363;28;19934;-62
2021/07/28 06:32:19;;;;;;;;;;;25.40;57.20;;;;;;5086097;28;19919;-59
2021/07/28 06:34:44;;;;;;;;;;;25.50;57.10;;;;;;5086261;28;20692;-64
2021/07/28 06:37:10;;;;;;;;;;;25.50;57.00;;;;;;5080165;28;19922;-59
2021/07/28 06:39:35;;;;;;;;;;;25.50;57.50;;;;;;5068936;28;19920;-62
2021/07/28 06:42:01;;;;;;;;;;;25.60;56.90;;;;;;5080207;28;19988;-60
2021/07/28 06:44:26;;;;;;;;;;;25.60;56.80;;;;;;5088318;28;19912;-62
2021/07/28 06:46:52;;;;;;;;;;;25.60;56.60;;;;;;5088277;28;19912;-61
2021/07/28 06:49:17;;;;;;;;;;;25.70;56.60;;;;;;5070875;28;19908;-59
2021/07/28 06:51:43;;;;;;;;;;;25.70;56.50;;;;;;5073904;28;20354;-60
2021/07/28 06:54:08;;;;;;;;;;;25.70;56.40;;;;;;5087057;28;19914;-61
2021/07/28 06:56:34;;;;;;;;;;;25.80;56.40;;;;;;5087197;28;19961;-62
2021/07/28 06:58:59;;;;;;;;;;;25.80;56.30;;;;;;5098017;28;19965;-61
2021/07/28 07:01:25;;;;;;;;;;;25.80;56.40;;;;;;5075515;28;19961;-63
2021/07/28 07:03:50;;;;;;;;;;;25.80;56.20;;;;;;5088703;28;20030;-63
2021/07/28 07:06:16;;;;;;;;;;;25.90;56.20;;;;;;5080941;28;19928;-61
2021/07/28 07:08:41;;;;;;;;;;;25.90;56.10;;;;;;5074054;28;19916;-62
2021/07/28 07:11:07;;;;;;;;;;;25.90;56.10;;;;;;5083364;28;19909;-61
2021/07/28 07:13:34;;;;;;;;;;;25.90;56.00;;;;;;5084756;28;19908;-62
2021/07/28 07:15:59;;;;;;;;;;;26.00;56.00;;;;;;5082178;28;19931;-61
2021/07/28 07:18:25;;;;;;;;;;;26.00;55.90;;;;;;5070906;28;19916;-60
2021/07/28 07:20:50;;;;;;;;;;;26.00;55.80;;;;;;5086884;28;19961;-61
2021/07/28 07:23:16;;;;;;;;;;;26.10;55.80;;;;;;5086780;28;19916;-63
2021/07/28 07:25:41;;;;;;;;;;;26.10;55.70;;;;;;5085254;28;20275;-60
2021/07/28 07:28:07;;;;;;;;;;;26.10;55.60;;;;;;5082976;28;19914;-61
2021/07/28 07:30:34;;;;;;;;;;;26.20;55.60;;;;;;5071454;28;20215;-60
2021/07/28 07:35:43;;;;;;;;;;;26.20;55.40;;;;;;5074586;28;19975;-65
2021/07/28 07:38:09;;;;;;;;;;;26.20;55.30;;;;;;5086151;28;20373;-61
2021/07/28 07:40:34;;;;;;;;;;;26.20;55.30;;;;;;5084117;28;19922;-60
2021/07/28 07:43:00;;;;;;;;;;;26.20;55.20;;;;;;5085841;28;19918;-61
2021/07/28 07:45:25;;;;;;;;;;;26.30;55.20;;;;;;5086864;28;20350;-61
2021/07/28 07:47:51;;;;;;;;;;;26.30;55.10;;;;;;5086237;28;19955;-65
2021/07/28 07:50:16;;;;;;;;;;;26.30;55.00;;;;;;5086552;28;19951;-66
2021/07/28 07:52:42;;;;;;;;;;;26.30;55.10;;;;;;5088241;28;19916;-65
2021/07/28 07:55:07;;;;;;;;;;;26.30;55.00;;;;;;5067633;28;19908;-61
2021/07/28 07:57:33;;;;;;;;;;;26.30;54.90;;;;;;5086374;28;19939;-64
2021/07/28 07:59:58;;;;;;;;;;;26.30;54.90;;;;;;5078802;28;19920;-63
2021/07/28 08:02:24;;;;;;;;;;;26.40;54.90;;;;;;5071106;28;19917;-59
2021/07/28 08:04:50;;;;;;;;;;;26.40;55.00;;;;;;5085899;28;19904;-62
2021/07/28 08:07:15;;;;;;;;;;;26.40;54.90;;;;;;5084646;28;19961;-61
2021/07/28 08:09:41;;;;;;;;;;;26.40;54.80;;;;;;5086552;28;20814;-66
2021/07/28 08:12:06;;;;;;;;;;;26.50;55.30;;;;;;5097503;28;19916;-64
2021/07/28 08:42:17;;;;;;;4.78;3.40;;;26.10;54.30;;;;;;5030096;27;20465;-64
2021/07/28 08:44:43;;;;;;;4.05;3.28;;;26.10;55.00;;;;;;5053084;28;20801;-63
2021/07/28 08:47:09;;;;;;;3.65;3.10;;;26.10;55.30;;;;;;5065894;28;20040;-60
2021/07/28 08:49:35;;;;;;;5.35;3.20;;;26.10;55.60;;;;;;5058800;28;20025;-65
2021/07/28 08:52:01;;;;;;;5.10;4.03;;;26.10;55.90;;;;;;5065522;28;20021;-63
2021/07/28 08:54:26;;;;;;;5.70;3.85;;;26.10;56.10;;;;;;5063369;28;20130;-61
2021/07/28 08:56:54;;;;;;;4.22;3.63;;;26.20;56.50;;;;;;5064120;28;20460;-66
2021/07/28 08:59:31;;;;;;;4.28;3.50;;;26.20;56.20;;;;;;5052073;28;20455;-61
2021/07/28 09:01:58;;;;;;;3.88;3.20;;;26.20;55.80;;;;;;5042359;28;20041;-61
2021/07/28 09:04:24;;;;;;;3.80;3.20;;;26.20;55.60;;;;;;5029574;28;20057;-62
2021/07/28 09:06:50;;;;;;;4.63;3.55;;;26.30;55.50;;;;;;5031947;28;20082;-60
2021/07/28 09:09:16;;;;;;;3.83;3.40;;;26.40;55.50;;;;;;5038220;28;20465;-64
2021/07/28 09:11:59;;;;;;;5.07;3.70;;;26.30;55.30;;;;;;5031346;28;20084;-61
2021/07/28 09:14:29;;;;;;;4.45;3.78;;;26.40;55.80;;;;;;5031385;28;20038;-61
2021/07/28 09:17:17;;;;;;;4.15;3.50;;;26.50;55.80;;;;;;5041651;28;20030;-59
2021/07/28 09:19:49;;;;;;;4.30;3.33;;;26.50;55.50;;;;;;5032195;28;20468;-60
2021/07/28 09:22:18;;;;;;;5.07;3.50;;;26.50;55.30;;;;;;5043432;28;20033;-63
2021/07/28 09:24:47;;;;;;;4.18;3.22;;;26.50;55.40;;;;;;5034927;28;20112;-61
2021/07/28 09:27:39;;;;;;;4.18;3.55;;;26.60;55.30;;;;;;5035846;28;20025;-61
2021/07/28 09:30:05;;;;;;;4.80;3.50;;;26.60;55.50;;;;;;5025759;28;20137;-63
2021/07/28 09:32:32;;;;;;;4.85;3.63;;;26.60;55.40;;;;;;5036380;28;20360;-65
2021/07/28 09:34:58;;;;;;;3.83;3.40;;;26.60;55.20;;;;;;5031963;28;20029;-60
2021/07/28 09:37:24;;;;;;;4.13;3.10;;;26.60;55.20;;;;;;5033399;28;20033;-61
2021/07/28 09:39:51;;;;;;;4.00;3.13;;;26.60;55.10;;;;;;5033182;28;20116;-60
2021/07/28 09:42:18;;;;;;;4.45;3.47;;;26.70;55.30;;;;;;5036076;28;20044;-63
2021/07/28 09:44:52;;;;;;;4.05;3.38;;;26.70;55.40;;;;;;5031854;28;20469;-61
2021/07/28 09:47:20;;;;;;;4.13;3.55;;;26.70;55.40;;;;;;5041032;28;20064;-62
2021/07/28 09:49:47;;;;;;;3.70;3.05;;;26.70;55.40;;;;;;5036714;28;20025;-64
2021/07/28 09:52:18;;;;;;;3.78;3.30;;;26.70;55.10;;;;;;5023667;28;20033;-63
2021/07/28 09:54:44;;;;;;;4.05;3.35;;;26.70;55.10;;;;;;5022687;28;20436;-61
2021/07/28 09:57:14;;;;;;;4.43;3.10;;;26.70;54.90;;;;;;5021957;28;20353;-60
2021/07/28 09:59:45;;;;;;;4.07;3.13;;;26.70;54.90;;;;;;5025744;28;20350;-60
2021/07/28 10:02:12;;;;;;;3.50;3.13;;;26.80;54.90;;;;;;5013735;28;20056;-60
2021/07/28 10:04:43;;;;;;;4.10;3.10;;;26.80;54.90;;;;;;5015505;28;20468;-61
2021/07/28 10:07:08;;;;;;;3.83;3.42;;;26.80;54.80;;;;;;5023348;28;20034;-61
2021/07/28 10:09:42;;;;;;;3.72;3.15;;;26.80;54.90;;;;;;5030369;28;20033;-61
2021/07/28 10:12:08;;;;;;;3.95;3.20;;;26.90;55.00;;;;;;5023009;28;20017;-65
2021/07/28 10:14:35;;;;;;;3.85;3.17;;;26.80;54.80;;;;;;5026378;28;20025;-61
2021/07/28 10:17:02;;;;;;;3.47;3.10;;;26.80;54.90;;;;;;5028677;28;20490;-60
2021/07/28 10:19:29;;;;;;;3.88;3.15;;;26.90;54.90;;;;;;5031589;28;20014;-61
2021/07/28 10:22:00;;;;;;;4.13;3.30;;;26.90;54.80;;;;;;5028701;28;20028;-62
2021/07/28 10:24:25;;;;;;;3.85;3.17;;;26.90;54.70;;;;;;5026335;28;20041;-62
2021/07/28 10:26:54;;;;;;;3.35;2.90;;;26.90;54.90;;;;;;5030126;28;20418;-60
2021/07/28 10:29:20;;;;;;;;;;;26.90;55.30;;;;;;5026366;28;20544;-62
2021/07/28 10:31:53;;;;;;;3.55;3.00;;;26.90;54.80;;;;;;5021450;28;19937;-62
2021/07/28 10:34:24;;;;;;;3.63;2.75;;;26.90;54.50;;;;;;5021566;28;20361;-61
2021/07/28 10:36:52;;;;;;;5.13;2.92;;;26.90;54.50;;;;;;5019839;28;20025;-60
2021/07/28 10:39:52;;;;;;;4.05;3.00;;;26.90;54.40;;;;;;5021824;28;20080;-64
2021/07/28 10:42:30;;;;;;;3.13;2.78;;;26.90;54.40;;;;;;5019701;28;20037;-62
2021/07/28 10:45:11;;;;;;;3.20;2.70;;;26.90;54.20;;;;;;5025896;28;20030;-62
2021/07/28 10:47:47;;;;;;;3.47;2.50;;;26.90;54.00;;;;;;5023350;28;20038;-64
2021/07/28 10:50:22;;;;;;;3.22;2.65;;;26.90;54.10;;;;;;5016101;28;20034;-64
2021/07/28 10:52:51;;;;;;;3.58;2.70;;;26.90;53.80;;;;;;5022961;28;20032;-60
2021/07/28 10:55:24;;;;;;;3.60;2.97;;;26.90;53.90;;;;;;5028974;28;20051;-63
2021/07/28 10:57:52;;;;;;;3.20;2.67;;;26.90;54.10;;;;;;5016425;28;20076;-60
2021/07/28 11:00:37;;;;;;;3.40;2.60;;;26.90;54.10;;;;;;5025654;28;20120;-65
2021/07/28 11:03:04;;;;;;;3.40;2.80;;;26.90;54.20;;;;;;5028414;28;20037;-60
2021/07/28 11:05:34;;;;;;;4.50;2.92;;;26.90;54.20;;;;;;5027443;28;20033;-61
2021/07/28 11:08:03;;;;;;;3.30;2.78;;;26.90;54.00;;;;;;5030630;28;20499;-66
2021/07/28 11:10:37;;;;;;;3.38;2.67;;;26.90;54.10;;;;;;5026045;28;20623;-65
2021/07/28 11:13:06;;;;;;;3.10;2.50;;;26.90;53.30;;;;;;5005482;28;20184;-61
2021/07/28 11:15:32;;;;;;;3.05;2.65;;;26.80;53.50;;;;;;5017943;28;20037;-63
2021/07/28 11:17:58;;;;;;;3.03;2.45;;;26.80;53.60;;;;;;5035315;28;20373;-63
2021/07/28 11:20:38;;;;;;;3.55;2.83;;;26.80;53.80;;;;;;5039391;28;20029;-61
2021/07/28 11:23:25;;;;;;;3.83;2.85;;;26.70;53.10;;;;;;5030600;28;20029;-63
2021/07/28 11:25:52;;;;;;;3.47;2.72;;;26.70;53.60;;;;;;5031154;28;20024;-63
2021/07/28 11:28:21;;;;;;;3.20;2.50;;;26.60;53.80;;;;;;5029821;28;20113;-65
2021/07/28 11:30:57;;;;;;;3.17;2.65;;;26.60;53.70;;;;;;5029371;28;20101;-65
2021/07/28 11:33:24;;;;;;;3.70;2.58;;;26.60;53.70;;;;;;5028622;28;20047;-63
2021/07/28 11:35:51;;;;;;;3.28;2.70;;;26.60;53.40;;;;;;5025251;28;20516;-62
2021/07/28 11:38:21;;;;;;;3.08;2.50;;;26.60;53.80;;;;;;5026110;28;20029;-62
2021/07/28 11:40:49;;;;;;;3.50;2.70;;;26.60;53.60;;;;;;5021972;28;20045;-66
2021/07/28 11:43:23;;;;;;;3.47;2.88;;;26.60;53.60;;;;;;5012515;28;20030;-63
2021/07/28 11:45:49;;;;;;;3.15;2.65;;;26.70;53.90;;;;;;5023256;28;20318;-63
2021/07/28 11:48:32;;;;;;;3.35;2.67;;;26.60;53.90;;;;;;5023390;28;20034;-62
2021/07/28 11:51:01;;;;;;;3.67;2.67;;;26.60;54.10;;;;;;5023596;28;20032;-62
2021/07/28 11:53:27;;;;;;;3.20;2.67;;;26.50;53.50;;;;;;5022982;28;20033;-62
2021/07/28 11:55:54;;;;;;;3.65;2.75;;;26.50;53.70;;;;;;5023578;28;20086;-64
2021/07/28 11:58:21;;;;;;;3.40;2.63;;;26.60;53.70;;;;;;5018942;28;20352;-60
2021/07/28 12:00:48;;;;;;;3.63;2.72;;;26.50;53.80;;;;;;5023728;28;20041;-62
2021/07/28 12:03:27;;;;;;;3.67;3.05;;;26.40;54.20;;;;;;5020103;28;20040;-63
2021/07/28 12:06:06;;;;;;;3.58;2.80;;;26.40;54.00;;;;;;5018099;28;20065;-63
2021/07/28 12:08:36;;;;;;;3.42;2.75;;;26.30;54.20;;;;;;5016090;28;20428;-61
2021/07/28 12:11:06;;;;;;;4.43;3.22;;;26.30;54.20;;;;;;5012107;28;20030;-67
2021/07/28 12:13:42;;;;;;;4.40;3.00;;;26.30;54.00;;;;;;5007308;28;20025;-65
2021/07/28 12:16:08;;;;;;;3.42;2.70;;;26.30;54.50;;;;;;5017394;28;20048;-63
2021/07/28 12:18:43;;;;;;;4.35;2.88;;;26.30;54.40;;;;;;5009762;28;20135;-65
2021/07/28 12:21:09;;;;;;;4.07;3.38;;;26.40;54.40;;;;;;5020970;28;20037;-61
2021/07/28 12:23:35;;;;;;;3.50;3.10;;;26.30;54.20;;;;;;5023631;28;20082;-64
2021/07/28 12:26:00;;;;;;;4.53;3.33;;;26.20;54.40;;;;;;5014022;28;20033;-66
2021/07/28 12:28:51;;;;;;;4.38;3.30;;;26.20;54.60;;;;;;5016247;28;20171;-63
2021/07/28 12:31:27;;;;;;;4.00;3.13;;;26.10;54.60;;;;;;5015932;28;20029;-64
2021/07/28 12:33:53;;;;;;;3.08;2.50;;;26.20;54.80;;;;;;5018099;28;20131;-63
2021/07/28 12:36:28;;;;;;;3.42;2.70;;;26.20;54.60;;;;;;5019578;28;20025;-62
2021/07/28 12:38:54;;;;;;;2.97;2.33;;;26.30;54.60;;;;;;5017694;28;20025;-61
2021/07/28 12:41:20;;;;;;;4.97;2.72;;;26.40;54.50;;;;;;5015062;28;20508;-62
2021/07/28 12:43:45;;;;;;;3.25;2.50;;;26.40;54.30;;;;;;5017429;28;20483;-63
2021/07/28 12:46:11;;;;;;;3.53;2.58;;;26.50;54.20;;;;;;5019139;28;20133;-61
2021/07/28 12:48:38;;;;;;;4.78;2.42;;;26.50;54.10;;;;;;5020792;28;20061;-65
2021/07/28 12:51:06;;;;;;;3.58;2.55;;;26.60;54.20;;;;;;5008196;28;20543;-64
2021/07/28 12:53:33;;;;;;;2.95;2.40;;;26.60;54.10;;;;;;5014283;28;20061;-64
2021/07/28 12:55:59;;;;;;;3.10;2.42;;;26.60;54.00;;;;;;5020808;28;20199;-61
2021/07/28 12:58:25;;;;;;;2.85;2.38;;;26.60;53.90;;;;;;5009407;28;20037;-64
2021/07/28 13:00:53;;;;;;;3.30;2.40;;;26.70;54.00;;;;;;5020545;28;20095;-62
2021/07/28 13:03:19;;;;;;;3.38;2.42;;;26.70;54.00;;;;;;5017916;28;20078;-64
2021/07/28 13:05:47;;;;;;;2.88;2.20;;;26.70;54.00;;;;;;5019105;28;20668;-64
2021/07/28 13:08:14;;;;;;;2.95;2.28;;;26.70;53.90;;;;;;5019184;28;20026;-64
2021/07/28 13:10:45;;;;;;;3.60;2.53;;;26.70;54.00;;;;;;5019157;28;20037;-63
2021/07/28 13:13:11;;;;;;;4.32;2.42;;;26.70;53.70;;;;;;5022395;28;20480;-63
2021/07/28 13:15:42;;;;;;;3.13;2.63;;;26.70;54.00;;;;;;5015828;28;20026;-63
2021/07/28 13:18:09;;;;;;;3.33;2.63;;;26.70;54.20;;;;;;5018016;28;20033;-61
2021/07/28 13:20:36;;;;;;;4.22;2.85;;;26.70;54.30;;;;;;5020342;28;20025;-61
2021/07/28 13:23:02;;;;;;;2.92;2.20;;;26.70;54.40;;;;;;5014396;28;20030;-61
2021/07/28 13:25:29;;;;;;;4.32;2.58;;;26.70;54.50;;;;;;5017723;28;20033;-62
2021/07/28 13:27:57;;;;;;;3.00;2.40;;;26.70;54.40;;;;;;5020601;28;20044;-62
2021/07/28 13:30:23;;;;;;;3.20;2.38;;;26.70;54.30;;;;;;5018156;28;20732;-63
2021/07/28 13:32:49;;;;;;;3.20;2.60;;;26.80;54.40;;;;;;5019967;28;20367;-65
2021/07/28 13:35:15;;;;;;;3.45;2.40;;;26.80;54.30;;;;;;5024144;28;20033;-62
2021/07/28 13:37:41;;;;;;;3.13;2.30;;;26.80;53.90;;;;;;5016624;28;20026;-61
2021/07/28 13:40:12;;;;;;;3.53;2.60;;;26.80;53.80;;;;;;5022683;28;20040;-64
2021/07/28 13:42:42;;;;;;;3.38;2.25;;;26.80;53.90;;;;;;5021950;28;20049;-62
2021/07/28 13:45:10;;;;;;;3.80;2.40;;;26.80;53.80;;;;;;5020780;28;20515;-64
2021/07/28 13:47:39;;;;;;;3.72;2.20;;;26.80;53.90;;;;;;5024993;28;20102;-67
2021/07/28 13:50:09;;;;;;;2.95;2.35;;;26.80;53.80;;;;;;5021286;28;20048;-62
2021/07/28 13:52:35;;;;;;;3.03;2.22;;;26.90;53.90;;;;;;5015786;28;20018;-64
2021/07/28 13:55:00;;;;;;;3.63;2.42;;;26.90;53.70;;;;;;5013566;28;20022;-63
2021/07/28 13:57:26;;;;;;;3.35;2.10;;;26.90;53.70;;;;;;5009183;28;20628;-60
2021/07/28 13:59:52;;;;;;;2.78;2.22;;;26.90;53.60;;;;;;5024605;28;20196;-61
2021/07/28 14:02:22;;;;;;;2.75;2.10;;;26.90;53.60;;;;;;5017008;28;20178;-63
2021/07/28 14:04:48;;;;;;;3.10;2.50;;;27.00;53.70;;;;;;5022698;28;20038;-63
2021/07/28 14:07:14;;;;;;;2.95;2.30;;;27.00;53.50;;;;;;5025004;28;20502;-61
2021/07/28 14:09:39;;;;;;;3.08;2.20;;;27.00;53.50;;;;;;5019733;28;20028;-61
2021/07/28 14:12:06;;;;;;;3.35;2.30;;;27.00;53.50;;;;;;5022701;28;20036;-61